createdAt,value
2023-03-06T00:01:24.855Z,99920.72
2023-03-06T00:04:28.339Z,99934.69
2023-03-06T00:07:31.518Z,99939.91
2023-03-06T00:10:35.289Z,99934.34
2023-03-06T00:13:38.955Z,99935.72
2023-03-06T00:16:42.390Z,99918.09
2023-03-06T00:19:45.623Z,99943.09
2023-03-06T00:22:49.649Z,99940.16
2023-03-06T00:25:52.825Z,99931.81
2023-03-06T00:28:56.448Z,99934.81
2023-03-06T00:31:59.941Z,99935.09
2023-03-06T00:35:03.596Z,99938.66
2023-03-06T00:38:07.369Z,99929.91
2023-03-06T00:41:13.814Z,99881.19
2023-03-06T00:44:17.079Z,99923.44
2023-03-06T00:47:21.818Z,99908.16
2023-03-06T00:50:24.996Z,99922.13
2023-03-06T00:53:29.521Z,99925.44
2023-03-06T00:56:32.588Z,99925.34
2023-03-06T00:59:36.036Z,99914.97
2023-03-06T01:02:39.545Z,99924.78
2023-03-06T01:05:43.254Z,99921.53
2023-03-06T01:08:47.092Z,99922.13
2023-03-06T01:11:50.646Z,99913.22
2023-03-06T01:14:53.825Z,99903.47
2023-03-06T01:17:57.477Z,99909.37
2023-03-06T01:21:00.654Z,99896.03
2023-03-06T01:24:04.297Z,99895.19
2023-03-06T01:27:07.680Z,99878.63
2023-03-06T01:30:12.500Z,99879.25
2023-03-06T01:33:16.318Z,99887.13
2023-03-06T01:36:21.030Z,99879.25
2023-03-06T01:39:24.458Z,99869.50
2023-03-06T01:42:28.715Z,99884.50
2023-03-06T01:45:35.090Z,99864.47
2023-03-06T01:48:40.076Z,99880.13
2023-03-06T01:52:05.991Z,99879.37
2023-03-06T01:55:16.102Z,99874.91
2023-03-06T01:58:20.210Z,99875.66
2023-03-06T02:01:23.895Z,99874.81
2023-03-06T02:04:29.424Z,99877.47
2023-03-06T02:07:34.639Z,99879.25
2023-03-06T02:10:38.093Z,99886.13
2023-03-06T02:13:42.218Z,99881.63
2023-03-06T02:16:45.793Z,99872.75
2023-03-06T02:20:02.625Z,99878.94
2023-03-06T02:23:24.754Z,99869.25
2023-03-06T02:26:29.841Z,99861.16
2023-03-06T02:29:33.778Z,99860.94
2023-03-06T02:32:37.521Z,99867.97
2023-03-06T02:35:46.985Z,99866.88
2023-03-06T02:38:51.615Z,99870.09
2023-03-06T02:41:55.921Z,99868.00
2023-03-06T02:45:02.447Z,99874.62
2023-03-06T02:48:06.959Z,99849.78
2023-03-06T02:51:10.072Z,99873.72
2023-03-06T02:54:13.479Z,99872.41
2023-03-06T02:57:18.669Z,99883.06
2023-03-06T03:00:23.686Z,99883.72
2023-03-06T03:03:26.857Z,99875.34
2023-03-06T03:06:31.791Z,99878.78
2023-03-06T03:09:37.102Z,99872.34
2023-03-06T03:12:42.750Z,99854.53
2023-03-06T03:15:46.196Z,99875.44
2023-03-06T03:18:51.193Z,99868.97
2023-03-06T03:21:54.972Z,99870.50
2023-03-06T03:24:59.012Z,99865.63
2023-03-06T03:28:02.818Z,99861.22
2023-03-06T03:31:09.136Z,99850.28
2023-03-06T03:34:12.623Z,99863.41
2023-03-06T03:37:16.727Z,99854.50
2023-03-06T03:40:20.091Z,99843.00
2023-03-06T03:43:25.221Z,99847.94
2023-03-06T03:46:28.540Z,99846.16
2023-03-06T03:49:32.179Z,99842.63
2023-03-06T03:52:35.465Z,99835.53
2023-03-06T03:55:39.511Z,99843.47
2023-03-06T03:58:43.085Z,99842.69
2023-03-06T04:01:47.190Z,99845.53
2023-03-06T04:04:51.775Z,99841.91
2023-03-06T04:07:56.625Z,99846.44
2023-03-06T04:11:00.543Z,99849.16
2023-03-06T04:14:05.725Z,99857.28
2023-03-06T04:17:10.560Z,99849.37
2023-03-06T04:20:15.075Z,99846.81
2023-03-06T04:23:21.349Z,99862.00
2023-03-06T04:26:24.487Z,99855.06
2023-03-06T04:29:28.598Z,99857.84
2023-03-06T04:32:32.237Z,99856.13
2023-03-06T04:35:36.404Z,99862.34
2023-03-06T04:38:40.025Z,99857.03
2023-03-06T04:41:43.981Z,99861.38
2023-03-06T04:44:47.211Z,99848.19
2023-03-06T04:47:50.698Z,99850.72
2023-03-06T04:50:53.948Z,99855.06
2023-03-06T04:53:57.535Z,99833.31
2023-03-06T04:57:00.824Z,99847.31
2023-03-06T05:00:06.990Z,99850.16
2023-03-06T05:03:12.388Z,99858.84
2023-03-06T05:06:16.114Z,99851.06
2023-03-06T05:09:19.640Z,99850.97
2023-03-06T05:15:47.515Z,99840.59
2023-03-06T05:18:51.264Z,99818.31
2023-03-06T05:21:57.365Z,99850.47
2023-03-06T05:25:01.009Z,99849.63
2023-03-06T05:28:04.310Z,99849.63
2023-03-06T05:31:08.063Z,99855.06
2023-03-06T05:34:15.463Z,99847.94
2023-03-06T05:37:18.939Z,99843.56
2023-03-06T05:40:22.680Z,99847.25
2023-03-06T05:43:26.163Z,99854.44
2023-03-06T05:46:29.391Z,99853.53
2023-03-06T05:49:35.714Z,99851.78
2023-03-06T05:52:40.050Z,99836.31
2023-03-06T05:55:43.580Z,99864.50
2023-03-06T05:58:46.974Z,99857.34
2023-03-06T06:01:50.412Z,99863.66
2023-03-06T06:04:56.086Z,99862.91
2023-03-06T06:08:02.564Z,99861.09
2023-03-06T06:11:07.517Z,99856.63
2023-03-06T06:14:10.995Z,99855.91
2023-03-06T06:17:14.689Z,99864.63
2023-03-06T06:20:18.958Z,99869.13
2023-03-06T06:23:22.722Z,99869.09
2023-03-06T06:26:26.394Z,99871.75
2023-03-06T06:29:30.224Z,99849.06
2023-03-06T06:32:33.711Z,99875.06
2023-03-06T06:35:37.439Z,99860.88
2023-03-06T06:38:40.715Z,99874.88
2023-03-06T06:42:02.365Z,99880.94
2023-03-06T06:45:11.744Z,99883.56
2023-03-06T06:48:17.879Z,99877.97
2023-03-06T06:51:23.421Z,99876.16
2023-03-06T06:54:28.518Z,99883.31
2023-03-06T06:57:31.862Z,99874.44
2023-03-06T07:00:35.254Z,99870.72
2023-03-06T07:03:39.657Z,99872.19
2023-03-06T07:06:43.544Z,99879.09
2023-03-06T07:09:47.062Z,99878.16
2023-03-06T07:12:50.729Z,99882.78
2023-03-06T07:15:54.240Z,99878.44
2023-03-06T07:18:57.704Z,99897.81
2023-03-06T07:22:00.882Z,99901.31
2023-03-06T07:25:06.382Z,99893.38
2023-03-06T07:28:09.439Z,99894.13
2023-03-06T07:31:13.133Z,99902.84
2023-03-06T07:34:16.817Z,99900.56
2023-03-06T07:37:20.568Z,99901.25
2023-03-06T07:40:24.595Z,99903.94
2023-03-06T07:43:28.198Z,99907.31
2023-03-06T07:46:33.032Z,99911.53
2023-03-06T07:49:38.061Z,99918.56
2023-03-06T07:52:41.861Z,99908.81
2023-03-06T07:55:45.700Z,99920.19
2023-03-06T07:58:49.232Z,99916.44
2023-03-06T08:01:55.562Z,99924.16
2023-03-06T08:04:59.033Z,99924.91
2023-03-06T08:08:02.371Z,99911.66
2023-03-06T08:11:06.869Z,99935.28
2023-03-06T08:14:10.266Z,99923.22
2023-03-06T08:17:13.969Z,99912.75
2023-03-06T08:20:18.683Z,99911.63
2023-03-06T08:23:21.976Z,99911.50
2023-03-06T08:26:27.674Z,99917.72
2023-03-06T08:29:32.336Z,99918.53
2023-03-06T08:32:38.727Z,99922.06
2023-03-06T08:35:42.298Z,99910.53
2023-03-06T08:38:45.546Z,99906.41
2023-03-06T08:41:48.989Z,99926.50
2023-03-06T08:44:52.191Z,99924.53
2023-03-06T08:47:55.648Z,99924.31
2023-03-06T08:50:59.791Z,99898.97
2023-03-06T08:54:03.565Z,99920.62
2023-03-06T08:57:07.197Z,99919.75
2023-03-06T09:00:11.325Z,99909.00
2023-03-06T09:03:14.820Z,99911.50
2023-03-06T09:06:18.285Z,99922.25
2023-03-06T09:09:21.484Z,99926.94
2023-03-06T09:12:25.676Z,99910.94
2023-03-06T09:15:29.178Z,99910.47
2023-03-06T09:18:33.340Z,99907.88
2023-03-06T09:21:36.494Z,99909.37
2023-03-06T09:24:39.978Z,99903.72
2023-03-06T09:27:43.092Z,99908.28
2023-03-06T09:30:46.570Z,99889.31
2023-03-06T09:33:50.087Z,99903.72
2023-03-06T09:36:57.238Z,99898.50
2023-03-06T09:40:00.708Z,99895.16
2023-03-06T09:43:04.980Z,99899.25
2023-03-06T09:46:14.185Z,99886.59
2023-03-06T09:49:55.511Z,99894.16
2023-03-06T09:53:17.423Z,99876.50
2023-03-06T09:56:23.708Z,99885.78
2023-03-06T09:59:28.794Z,99885.31
2023-03-06T10:02:54.373Z,99880.25
2023-03-06T10:06:04.704Z,99877.72
2023-03-06T10:09:13.443Z,99884.00
2023-03-06T10:12:39.053Z,99882.06
2023-03-06T10:15:45.247Z,99887.34
2023-03-06T10:18:48.670Z,99883.53
2023-03-06T10:23:00.795Z,99878.91
2023-03-06T10:26:19.726Z,99876.75
2023-03-06T10:30:02.277Z,99874.50
2023-03-06T10:33:23.078Z,99874.56
2023-03-06T10:36:27.992Z,99870.87
2023-03-06T10:39:31.675Z,99865.53
2023-03-06T10:42:34.794Z,99853.66
2023-03-06T10:45:49.768Z,99852.66
2023-03-06T10:48:59.057Z,99844.22
2023-03-06T10:52:07.041Z,99839.25
2023-03-06T10:55:31.868Z,99829.69
2023-03-06T10:58:35.450Z,99818.78
2023-03-06T11:01:40.944Z,99811.66
2023-03-06T11:04:47.488Z,99825.31
2023-03-06T11:07:56.352Z,99815.28
2023-03-06T11:11:06.432Z,99806.19
2023-03-06T11:14:27.602Z,99797.84
2023-03-06T11:17:32.273Z,99794.44
2023-03-06T11:20:52.610Z,99794.22
2023-03-06T11:24:03.505Z,99775.03
2023-03-06T11:27:34.489Z,99769.22
2023-03-06T11:30:52.650Z,99762.72
2023-03-06T11:34:08.404Z,99758.09
2023-03-06T11:37:37.267Z,99744.28
2023-03-06T11:40:46.311Z,99747.84
2023-03-06T11:44:22.094Z,99736.19
2023-03-06T11:47:44.931Z,99734.72
2023-03-06T11:50:53.377Z,99728.53
2023-03-06T11:54:00.210Z,99719.63
2023-03-06T11:57:11.583Z,99715.16
2023-03-06T12:00:47.449Z,99705.41
2023-03-06T12:04:03.296Z,99701.09
2023-03-06T12:07:36.058Z,99696.34
2023-03-06T12:10:51.794Z,99697.94
2023-03-06T12:13:55.359Z,99700.62
2023-03-06T12:17:06.985Z,99691.31
2023-03-06T12:20:34.746Z,99686.09
2023-03-06T12:23:59.902Z,99677.41
2023-03-06T12:27:20.170Z,99676.03
2023-03-06T12:30:57.181Z,99675.63
2023-03-06T12:34:07.098Z,99674.19
2023-03-06T12:37:36.367Z,99672.75
2023-03-06T12:41:15.893Z,99676.38
2023-03-06T12:44:27.989Z,99673.97
2023-03-06T12:47:38.954Z,99669.66
2023-03-06T12:50:45.884Z,99670.28
2023-03-06T12:53:51.501Z,99667.72
2023-03-06T12:56:57.373Z,99658.16
2023-03-06T13:00:00.557Z,99656.88
2023-03-06T13:03:51.302Z,99653.56
2023-03-06T13:07:09.966Z,99652.69
2023-03-06T13:10:26.771Z,99651.19
2023-03-06T13:13:33.370Z,99644.41
2023-03-06T13:16:37.361Z,99638.19
2023-03-06T13:19:40.666Z,99624.38
2023-03-06T13:22:46.712Z,99609.28
2023-03-06T13:25:50.951Z,99632.09
2023-03-06T13:28:57.882Z,99628.66
2023-03-06T13:32:01.535Z,99627.53
2023-03-06T13:35:34.693Z,99622.16
2023-03-06T13:38:41.800Z,99616.56
2023-03-06T13:41:59.304Z,99608.75
2023-03-06T13:45:15.074Z,99602.53
2023-03-06T13:48:43.817Z,99613.47
2023-03-06T13:52:10.984Z,99608.12
2023-03-06T13:55:41.298Z,99601.50
2023-03-06T13:59:15.408Z,99607.88
2023-03-06T14:02:24.988Z,99611.34
2023-03-06T14:05:54.948Z,99611.84
2023-03-06T14:08:59.372Z,99608.88
2023-03-06T14:12:37.203Z,99611.16
2023-03-06T14:15:40.300Z,99604.16
2023-03-06T14:18:48.300Z,99603.34
2023-03-06T14:21:57.274Z,99606.41
2023-03-06T14:25:08.101Z,99594.00
2023-03-06T14:28:29.273Z,99561.44
2023-03-06T14:31:42.730Z,99583.75
2023-03-06T14:34:47.750Z,99582.56
2023-03-06T14:37:55.780Z,99567.56
2023-03-06T14:40:59.202Z,99571.75
2023-03-06T14:44:18.356Z,99575.38
2023-03-06T14:47:27.605Z,99570.62
2023-03-06T14:50:34.361Z,99557.75
2023-03-06T14:53:38.009Z,99572.22
2023-03-06T14:56:43.292Z,99569.78
2023-03-06T15:00:00.250Z,99554.75
2023-03-06T15:03:07.846Z,99555.59
2023-03-06T15:06:17.808Z,99564.19
2023-03-06T15:09:25.489Z,99556.72
2023-03-06T15:12:34.135Z,99557.75
2023-03-06T15:15:37.760Z,99559.31
2023-03-06T15:18:55.789Z,99553.25
2023-03-06T15:22:01.474Z,99546.13
2023-03-06T15:25:19.942Z,99543.72
2023-03-06T15:28:26.107Z,99548.12
2023-03-06T15:31:31.988Z,99541.97
2023-03-06T15:34:35.605Z,99544.03
2023-03-06T15:37:38.874Z,99541.44
2023-03-06T15:40:56.001Z,99548.84
2023-03-06T15:44:01.503Z,99548.28
2023-03-06T15:47:09.189Z,99552.22
2023-03-06T15:50:24.992Z,99545.44
2023-03-06T15:53:28.702Z,99547.34
2023-03-06T15:56:35.375Z,99549.38
2023-03-06T15:59:44.404Z,99502.72
2023-03-06T16:02:47.881Z,99547.22
2023-03-06T16:05:51.500Z,99553.59
2023-03-06T16:08:54.970Z,99555.62
2023-03-06T16:11:59.601Z,99551.78
2023-03-06T16:15:03.466Z,99549.88
2023-03-06T16:18:10.516Z,99553.56
2023-03-06T16:21:14.938Z,99542.09
2023-03-06T16:24:19.312Z,99544.91
2023-03-06T16:27:26.071Z,99560.03
2023-03-06T16:30:31.599Z,99560.03
2023-03-06T16:33:35.405Z,99566.31
2023-03-06T16:36:39.368Z,99563.72
2023-03-06T16:39:43.375Z,99567.41
2023-03-06T16:42:48.604Z,99555.97
2023-03-06T16:45:52.776Z,99565.97
2023-03-06T16:48:57.112Z,99556.66
2023-03-06T16:52:01.241Z,99568.56
2023-03-06T16:55:05.167Z,99556.00
2023-03-06T16:58:08.840Z,99570.38
2023-03-06T17:01:16.605Z,99568.00
2023-03-06T17:04:20.170Z,99569.88
2023-03-06T17:07:23.669Z,99569.06
2023-03-06T17:10:27.845Z,99569.81
2023-03-06T17:13:31.867Z,99560.94
2023-03-06T17:16:39.394Z,99553.31
2023-03-06T17:19:47.446Z,99559.75
2023-03-06T17:22:51.032Z,99558.09
2023-03-06T17:26:07.254Z,99558.00
2023-03-06T17:29:12.518Z,99550.09
2023-03-06T17:32:16.460Z,99544.75
2023-03-06T17:35:20.541Z,99543.78
2023-03-06T17:38:26.403Z,99541.53
2023-03-06T17:41:33.160Z,99545.16
2023-03-06T17:44:38.351Z,99540.22
2023-03-06T17:47:44.697Z,99534.09
2023-03-06T17:50:57.785Z,99549.34
2023-03-06T17:54:02.158Z,99547.47
2023-03-06T17:57:07.450Z,99549.25
2023-03-06T18:00:12.086Z,99541.38
2023-03-06T18:03:16.476Z,99543.13
2023-03-06T18:06:22.795Z,99544.84
2023-03-06T18:09:26.602Z,99551.06
2023-03-06T18:12:32.031Z,99547.53
2023-03-06T18:15:41.009Z,99552.00
2023-03-06T18:18:45.352Z,99545.88
2023-03-06T18:21:49.713Z,99544.91
2023-03-06T18:24:54.969Z,99528.03
2023-03-06T18:27:59.671Z,99554.84
2023-03-06T18:31:19.369Z,99549.88
2023-03-06T18:34:23.444Z,99552.19
2023-03-06T18:37:29.931Z,99547.41
2023-03-06T18:40:34.901Z,99543.97
2023-03-06T18:43:40.366Z,99542.59
2023-03-06T18:46:46.101Z,99541.06
2023-03-06T18:49:52.032Z,99519.44
2023-03-06T18:52:56.618Z,99523.91
2023-03-06T18:56:04.125Z,99516.09
2023-03-06T18:59:11.073Z,99525.06
2023-03-06T19:02:16.696Z,99526.09
2023-03-06T19:05:23.978Z,99535.44
2023-03-06T19:08:29.212Z,99533.22
2023-03-06T19:11:35.881Z,99530.06
2023-03-06T19:14:43.130Z,99536.78
2023-03-06T19:17:50.364Z,99542.47
2023-03-06T19:20:57.156Z,99536.72
2023-03-06T19:24:04.109Z,99541.63
2023-03-06T19:27:09.684Z,99535.66
2023-03-06T19:30:15.235Z,99540.25
2023-03-06T19:33:23.829Z,99537.63
2023-03-06T19:36:33.648Z,99537.00
2023-03-06T19:39:40.267Z,99537.63
2023-03-06T19:42:45.871Z,99526.13
2023-03-06T19:45:52.821Z,99529.59
2023-03-06T19:49:03.166Z,99521.34
2023-03-06T19:52:08.252Z,99522.16
2023-03-06T19:55:12.375Z,99520.41
2023-03-06T19:58:17.516Z,99517.31
2023-03-06T20:01:23.625Z,99519.72
2023-03-06T20:04:35.035Z,99524.56
2023-03-06T20:07:39.168Z,99513.59
2023-03-06T20:10:44.163Z,99528.28
2023-03-06T20:13:50.124Z,99503.34
2023-03-06T20:16:54.844Z,99527.87
2023-03-06T20:20:00.851Z,99488.91
2023-03-06T20:23:06.502Z,99515.91
2023-03-06T20:26:13.284Z,99538.66
2023-03-06T20:29:19.343Z,99541.44
2023-03-06T20:32:25.307Z,99538.88
2023-03-06T20:35:30.718Z,99552.37
2023-03-06T20:38:34.873Z,99561.84
2023-03-06T20:41:40.612Z,99552.16
2023-03-06T20:44:45.004Z,99541.25
2023-03-06T20:47:50.945Z,99534.78
2023-03-06T20:51:18.566Z,99527.31
2023-03-06T20:54:23.651Z,99498.81
2023-03-06T20:57:31.328Z,99498.25
2023-03-06T21:00:35.056Z,99534.38
2023-03-06T21:03:39.852Z,99506.94
2023-03-06T21:06:47.335Z,99525.44
2023-03-06T21:09:52.511Z,99520.87
2023-03-06T21:12:57.775Z,99533.81
2023-03-06T21:16:07.116Z,99532.41
2023-03-06T21:19:12.149Z,99485.94
2023-03-06T21:22:16.754Z,99534.91
2023-03-06T21:25:21.246Z,99535.16
2023-03-06T21:28:25.062Z,99515.16
2023-03-06T21:31:31.652Z,99544.47
2023-03-06T21:34:35.353Z,99551.00
2023-03-06T21:37:38.865Z,99555.28
2023-03-06T21:40:42.913Z,99559.37
2023-03-06T21:43:46.821Z,99554.94
2023-03-06T21:46:50.237Z,99560.81
2023-03-06T21:49:53.781Z,99544.25
2023-03-06T21:52:57.614Z,99558.28
2023-03-06T21:56:01.944Z,99551.13
2023-03-06T21:59:05.187Z,99540.19
2023-03-06T22:02:10.740Z,99500.09
2023-03-06T22:05:14.538Z,99538.31
2023-03-06T22:08:21.347Z,99536.50
2023-03-06T22:11:26.411Z,99528.84
2023-03-06T22:14:30.003Z,99539.62
2023-03-06T22:17:33.529Z,99537.81
2023-03-06T22:20:39.649Z,99544.16
2023-03-06T22:23:43.512Z,99498.16
2023-03-06T22:26:46.741Z,99541.31
2023-03-06T22:29:50.305Z,99540.09
2023-03-06T22:32:53.670Z,99543.50
2023-03-06T22:36:08.113Z,99491.06
2023-03-06T22:39:13.619Z,99516.53
2023-03-06T22:42:17.384Z,99531.31
2023-03-06T22:45:20.512Z,99542.81
2023-03-06T22:48:23.959Z,99533.91
2023-03-06T22:51:29.521Z,99541.09
2023-03-06T22:54:34.437Z,99541.84
2023-03-06T22:57:37.526Z,99532.06
2023-03-06T23:00:42.164Z,99537.38
2023-03-06T23:03:51.616Z,99528.53
2023-03-06T23:06:55.119Z,99537.50
2023-03-06T23:09:58.949Z,99533.16
2023-03-06T23:13:20.379Z,99538.88
2023-03-06T23:16:41.666Z,99548.16
2023-03-06T23:20:10.135Z,99553.81
2023-03-06T23:23:31.651Z,99547.06
2023-03-06T23:26:36.186Z,99553.75
2023-03-06T23:29:39.836Z,99555.12
2023-03-06T23:32:46.013Z,99564.94
2023-03-06T23:35:50.260Z,99551.56
2023-03-06T23:38:53.715Z,99554.06
2023-03-06T23:41:57.221Z,99543.44
2023-03-06T23:45:00.795Z,99551.50
2023-03-06T23:48:07.356Z,99556.88
2023-03-06T23:51:17.810Z,99548.16
2023-03-06T23:54:21.177Z,99549.00
2023-03-06T23:57:25.489Z,99527.56
